sensor_id;sensor_type;location;lat;lon;timestamp;P1;durP1;ratioP1;P2;durP2;ratioP2
7003;SDS011;3542;48.812;9.146;2022-07-11T00:02:15;2.53;;;1.10;;
7003;SDS011;3542;48.812;9.146;2022-07-11T00:04:41;1.20;;;1.20;;
7003;SDS011;3542;48.812;9.146;2022-07-11T00:07:11;2.00;;;0.90;;
7003;SDS011;3542;48.812;9.146;2022-07-11T00:09:37;1.33;;;1.23;;
7003;SDS011;3542;48.812;9.146;2022-07-11T00:12:03;1.13;;;1.03;;
7003;SDS011;3542;48.812;9.146;2022-07-11T00:14:29;1.60;;;0.93;;
7003;SDS011;3542;48.812;9.146;2022-07-11T00:16:55;1.10;;;1.10;;
7003;SDS011;3542;48.812;9.146;2022-07-11T00:19:21;1.63;;;1.03;;
7003;SDS011;3542;48.812;9.146;2022-07-11T00:21:47;1.80;;;1.00;;
7003;SDS011;3542;48.812;9.146;2022-07-11T00:24:13;1.33;;;1.23;;
7003;SDS011;3542;48.812;9.146;2022-07-11T00:26:39;2.27;;;1.50;;
7003;SDS011;3542;48.812;9.146;2022-07-11T00:29:05;1.40;;;1.20;;
7003;SDS011;3542;48.812;9.146;2022-07-11T00:31:31;1.40;;;1.30;;
7003;SDS011;3542;48.812;9.146;2022-07-11T00:33:57;1.50;;;1.40;;
7003;SDS011;3542;48.812;9.146;2022-07-11T00:36:23;2.23;;;1.73;;
7003;SDS011;3542;48.812;9.146;2022-07-11T00:38:48;1.33;;;1.23;;
7003;SDS011;3542;48.812;9.146;2022-07-11T00:41:14;2.03;;;1.50;;
7003;SDS011;3542;48.812;9.146;2022-07-11T00:43:41;1.83;;;1.23;;
7003;SDS011;3542;48.812;9.146;2022-07-11T00:46:08;1.43;;;1.33;;
7003;SDS011;3542;48.812;9.146;2022-07-11T00:48:34;3.87;;;1.90;;
7003;SDS011;3542;48.812;9.146;2022-07-11T00:51:03;1.33;;;1.27;;
7003;SDS011;3542;48.812;9.146;2022-07-11T00:53:31;3.47;;;1.53;;
7003;SDS011;3542;48.812;9.146;2022-07-11T00:55:57;1.97;;;1.83;;
7003;SDS011;3542;48.812;9.146;2022-07-11T00:58:24;1.83;;;1.57;;
7003;SDS011;3542;48.812;9.146;2022-07-11T02:31:27;1.80;;;1.70;;
7003;SDS011;3542;48.812;9.146;2022-07-11T02:33:53;2.50;;;2.30;;
7003;SDS011;3542;48.812;9.146;2022-07-11T02:36:19;3.03;;;2.57;;
7003;SDS011;3542;48.812;9.146;2022-07-11T02:38:45;2.97;;;2.40;;
7003;SDS011;3542;48.812;9.146;2022-07-11T02:41:10;2.43;;;2.23;;
7003;SDS011;3542;48.812;9.146;2022-07-11T02:43:36;3.57;;;2.33;;
7003;SDS011;3542;48.812;9.146;2022-07-11T02:46:01;1.97;;;1.87;;
7003;SDS011;3542;48.812;9.146;2022-07-11T02:48:27;2.60;;;2.30;;
7003;SDS011;3542;48.812;9.146;2022-07-11T02:50:53;3.63;;;2.70;;
7003;SDS011;3542;48.812;9.146;2022-07-11T02:53:18;3.30;;;1.87;;
7003;SDS011;3542;48.812;9.146;2022-07-11T02:55:44;2.23;;;2.00;;
7003;SDS011;3542;48.812;9.146;2022-07-11T02:58:10;2.50;;;2.40;;
7003;SDS011;3542;48.812;9.146;2022-07-11T03:00:36;2.43;;;2.27;;
7003;SDS011;3542;48.812;9.146;2022-07-11T03:03:01;2.80;;;2.43;;
7003;SDS011;3542;48.812;9.146;2022-07-11T03:05:28;2.87;;;2.63;;
7003;SDS011;3542;48.812;9.146;2022-07-11T03:07:53;2.93;;;2.80;;
7003;SDS011;3542;48.812;9.146;2022-07-11T03:10:19;3.03;;;2.83;;
7003;SDS011;3542;48.812;9.146;2022-07-11T03:12:45;2.83;;;2.63;;
7003;SDS011;3542;48.812;9.146;2022-07-11T03:15:11;2.83;;;2.50;;
7003;SDS011;3542;48.812;9.146;2022-07-11T03:17:37;3.40;;;2.80;;
7003;SDS011;3542;48.812;9.146;2022-07-11T03:20:03;2.70;;;2.50;;
7003;SDS011;3542;48.812;9.146;2022-07-11T03:22:30;3.77;;;2.87;;
7003;SDS011;3542;48.812;9.146;2022-07-11T03:24:55;2.83;;;2.60;;
7003;SDS011;3542;48.812;9.146;2022-07-11T03:27:21;2.77;;;2.50;;
7003;SDS011;3542;48.812;9.146;2022-07-11T03:29:47;2.70;;;2.30;;
7003;SDS011;3542;48.812;9.146;2022-07-11T03:32:12;4.13;;;2.60;;
7003;SDS011;3542;48.812;9.146;2022-07-11T03:34:38;2.60;;;2.40;;
7003;SDS011;3542;48.812;9.146;2022-07-11T03:37:04;2.63;;;2.53;;
7003;SDS011;3542;48.812;9.146;2022-07-11T03:39:30;3.23;;;2.90;;
7003;SDS011;3542;48.812;9.146;2022-07-11T03:41:56;3.10;;;2.90;;
7003;SDS011;3542;48.812;9.146;2022-07-11T03:44:22;3.30;;;2.93;;
7003;SDS011;3542;48.812;9.146;2022-07-11T03:46:47;2.97;;;2.80;;
7003;SDS011;3542;48.812;9.146;2022-07-11T03:49:13;3.17;;;2.97;;
7003;SDS011;3542;48.812;9.146;2022-07-11T03:51:38;2.80;;;2.57;;
7003;SDS011;3542;48.812;9.146;2022-07-11T03:54:04;3.17;;;2.97;;
7003;SDS011;3542;48.812;9.146;2022-07-11T03:56:30;3.20;;;2.97;;
7003;SDS011;3542;48.812;9.146;2022-07-11T03:58:56;2.80;;;2.40;;
7003;SDS011;3542;48.812;9.146;2022-07-11T04:01:22;3.10;;;2.87;;
7003;SDS011;3542;48.812;9.146;2022-07-11T04:03:47;2.97;;;2.70;;
7003;SDS011;3542;48.812;9.146;2022-07-11T04:06:14;3.80;;;3.50;;
7003;SDS011;3542;48.812;9.146;2022-07-11T04:08:39;6.53;;;3.53;;
7003;SDS011;3542;48.812;9.146;2022-07-11T04:11:05;3.57;;;3.27;;
7003;SDS011;3542;48.812;9.146;2022-07-11T04:13:31;3.77;;;3.57;;
7003;SDS011;3542;48.812;9.146;2022-07-11T04:15:56;5.40;;;4.10;;
7003;SDS011;3542;48.812;9.146;2022-07-11T04:18:22;3.63;;;3.43;;
7003;SDS011;3542;48.812;9.146;2022-07-11T04:20:48;3.53;;;3.33;;
7003;SDS011;3542;48.812;9.146;2022-07-11T04:23:14;6.10;;;3.70;;
7003;SDS011;3542;48.812;9.146;2022-07-11T04:25:40;3.70;;;3.40;;
7003;SDS011;3542;48.812;9.146;2022-07-11T04:28:06;4.00;;;3.63;;
7003;SDS011;3542;48.812;9.146;2022-07-11T04:30:31;4.27;;;3.87;;
7003;SDS011;3542;48.812;9.146;2022-07-11T04:32:58;3.83;;;3.43;;
7003;SDS011;3542;48.812;9.146;2022-07-11T04:35:23;7.70;;;3.77;;
7003;SDS011;3542;48.812;9.146;2022-07-11T04:37:49;3.83;;;3.63;;
7003;SDS011;3542;48.812;9.146;2022-07-11T04:40:15;4.40;;;4.00;;
7003;SDS011;3542;48.812;9.146;2022-07-11T04:42:42;5.10;;;3.77;;
7003;SDS011;3542;48.812;9.146;2022-07-11T04:45:08;4.70;;;4.30;;
7003;SDS011;3542;48.812;9.146;2022-07-11T04:47:34;12.30;;;4.70;;
7003;SDS011;3542;48.812;9.146;2022-07-11T04:49:59;7.40;;;3.80;;
7003;SDS011;3542;48.812;9.146;2022-07-11T04:52:25;4.17;;;3.87;;
7003;SDS011;3542;48.812;9.146;2022-07-11T04:54:51;3.47;;;3.23;;
7003;SDS011;3542;48.812;9.146;2022-07-11T04:57:18;5.00;;;4.00;;
7003;SDS011;3542;48.812;9.146;2022-07-11T04:59:43;4.40;;;4.00;;
7003;SDS011;3542;48.812;9.146;2022-07-11T05:02:09;6.90;;;6.20;;
7003;SDS011;3542;48.812;9.146;2022-07-11T05:04:34;5.20;;;4.70;;
7003;SDS011;3542;48.812;9.146;2022-07-11T05:07:01;4.40;;;4.00;;
7003;SDS011;3542;48.812;9.146;2022-07-11T05:09:26;4.47;;;4.07;;
7003;SDS011;3542;48.812;9.146;2022-07-11T05:11:52;4.83;;;4.33;;
7003;SDS011;3542;48.812;9.146;2022-07-11T05:14:17;4.10;;;3.80;;
7003;SDS011;3542;48.812;9.146;2022-07-11T05:16:43;4.43;;;4.10;;
7003;SDS011;3542;48.812;9.146;2022-07-11T05:19:08;4.90;;;3.90;;
7003;SDS011;3542;48.812;9.146;2022-07-11T05:21:34;6.50;;;4.40;;
7003;SDS011;3542;48.812;9.146;2022-07-11T05:23:59;4.30;;;4.10;;
7003;SDS011;3542;48.812;9.146;2022-07-11T05:26:25;4.13;;;3.70;;
7003;SDS011;3542;48.812;9.146;2022-07-11T05:28:50;4.30;;;4.00;;
7003;SDS011;3542;48.812;9.146;2022-07-11T05:31:16;3.97;;;3.67;;
7003;SDS011;3542;48.812;9.146;2022-07-11T05:33:41;3.80;;;3.50;;
7003;SDS011;3542;48.812;9.146;2022-07-11T05:36:07;4.17;;;3.83;;
7003;SDS011;3542;48.812;9.146;2022-07-11T05:38:33;4.80;;;4.10;;
7003;SDS011;3542;48.812;9.146;2022-07-11T05:40:59;4.37;;;3.97;;
7003;SDS011;3542;48.812;9.146;2022-07-11T05:43:24;4.43;;;4.10;;
7003;SDS011;3542;48.812;9.146;2022-07-11T05:45:50;4.53;;;4.13;;
7003;SDS011;3542;48.812;9.146;2022-07-11T05:48:16;4.10;;;3.77;;
7003;SDS011;3542;48.812;9.146;2022-07-11T05:50:41;4.37;;;3.97;;
7003;SDS011;3542;48.812;9.146;2022-07-11T05:53:08;4.60;;;4.20;;
7003;SDS011;3542;48.812;9.146;2022-07-11T05:55:36;3.97;;;3.77;;
7003;SDS011;3542;48.812;9.146;2022-07-11T05:58:01;5.70;;;4.00;;
7003;SDS011;3542;48.812;9.146;2022-07-11T06:00:27;4.07;;;3.70;;
7003;SDS011;3542;48.812;9.146;2022-07-11T06:02:53;4.10;;;3.80;;
7003;SDS011;3542;48.812;9.146;2022-07-11T06:05:18;4.10;;;3.80;;
7003;SDS011;3542;48.812;9.146;2022-07-11T06:07:44;3.43;;;3.17;;
7003;SDS011;3542;48.812;9.146;2022-07-11T06:10:29;5.73;;;4.20;;
7003;SDS011;3542;48.812;9.146;2022-07-11T06:12:54;4.40;;;4.10;;
7003;SDS011;3542;48.812;9.146;2022-07-11T06:15:20;7.60;;;4.07;;
7003;SDS011;3542;48.812;9.146;2022-07-11T06:17:46;9.90;;;4.33;;
7003;SDS011;3542;48.812;9.146;2022-07-11T06:20:11;3.87;;;3.57;;
7003;SDS011;3542;48.812;9.146;2022-07-11T06:22:37;4.13;;;3.80;;
7003;SDS011;3542;48.812;9.146;2022-07-11T06:25:03;3.53;;;3.30;;
7003;SDS011;3542;48.812;9.146;2022-07-11T06:27:29;3.30;;;3.10;;
7003;SDS011;3542;48.812;9.146;2022-07-11T06:29:55;9.00;;;3.60;;
7003;SDS011;3542;48.812;9.146;2022-07-11T06:32:20;4.67;;;4.33;;
7003;SDS011;3542;48.812;9.146;2022-07-11T06:34:46;4.47;;;2.97;;
7003;SDS011;3542;48.812;9.146;2022-07-11T06:37:11;3.03;;;2.83;;
7003;SDS011;3542;48.812;9.146;2022-07-11T06:39:37;4.17;;;3.87;;
7003;SDS011;3542;48.812;9.146;2022-07-11T06:42:02;5.73;;;3.30;;
7003;SDS011;3542;48.812;9.146;2022-07-11T06:44:28;3.07;;;2.87;;
7003;SDS011;3542;48.812;9.146;2022-07-11T06:46:53;3.80;;;3.50;;
7003;SDS011;3542;48.812;9.146;2022-07-11T06:49:19;4.00;;;3.60;;
7003;SDS011;3542;48.812;9.146;2022-07-11T06:51:44;4.30;;;3.20;;
7003;SDS011;3542;48.812;9.146;2022-07-11T06:54:10;4.93;;;3.33;;
7003;SDS011;3542;48.812;9.146;2022-07-11T06:56:35;2.90;;;2.67;;
7003;SDS011;3542;48.812;9.146;2022-07-11T06:59:01;3.60;;;3.30;;
7003;SDS011;3542;48.812;9.146;2022-07-11T07:01:26;5.00;;;3.23;;
7003;SDS011;3542;48.812;9.146;2022-07-11T07:03:52;5.27;;;3.20;;
7003;SDS011;3542;48.812;9.146;2022-07-11T07:06:18;4.90;;;3.40;;
7003;SDS011;3542;48.812;9.146;2022-07-11T07:08:44;2.87;;;2.67;;
7003;SDS011;3542;48.812;9.146;2022-07-11T07:11:10;6.83;;;2.70;;
7003;SDS011;3542;48.812;9.146;2022-07-11T07:13:36;3.57;;;2.73;;
7003;SDS011;3542;48.812;9.146;2022-07-11T07:16:01;7.10;;;2.67;;
7003;SDS011;3542;48.812;9.146;2022-07-11T07:18:27;2.50;;;2.30;;
7003;SDS011;3542;48.812;9.146;2022-07-11T07:20:53;2.30;;;2.10;;
7003;SDS011;3542;48.812;9.146;2022-07-11T07:23:18;2.30;;;2.10;;
7003;SDS011;3542;48.812;9.146;2022-07-11T07:25:44;2.40;;;2.20;;
7003;SDS011;3542;48.812;9.146;2022-07-11T07:28:10;2.67;;;2.20;;
7003;SDS011;3542;48.812;9.146;2022-07-11T07:30:36;2.90;;;2.70;;
7003;SDS011;3542;48.812;9.146;2022-07-11T07:33:01;3.07;;;2.77;;
7003;SDS011;3542;48.812;9.146;2022-07-11T07:35:28;5.57;;;2.30;;
7003;SDS011;3542;48.812;9.146;2022-07-11T07:37:54;2.80;;;2.57;;
7003;SDS011;3542;48.812;9.146;2022-07-11T07:40:19;2.60;;;2.43;;
7003;SDS011;3542;48.812;9.146;2022-07-11T07:42:45;2.53;;;2.43;;
7003;SDS011;3542;48.812;9.146;2022-07-11T07:45:10;2.80;;;2.60;;
7003;SDS011;3542;48.812;9.146;2022-07-11T07:47:36;3.67;;;2.57;;
7003;SDS011;3542;48.812;9.146;2022-07-11T07:50:02;2.27;;;2.10;;
7003;SDS011;3542;48.812;9.146;2022-07-11T07:52:29;2.30;;;2.20;;
7003;SDS011;3542;48.812;9.146;2022-07-11T07:54:54;7.10;;;2.30;;
7003;SDS011;3542;48.812;9.146;2022-07-11T07:57:20;1.83;;;1.73;;
7003;SDS011;3542;48.812;9.146;2022-07-11T07:59:45;2.30;;;1.37;;
7003;SDS011;3542;48.812;9.146;2022-07-11T08:02:11;2.20;;;2.10;;
7003;SDS011;3542;48.812;9.146;2022-07-11T08:04:36;1.73;;;1.73;;
7003;SDS011;3542;48.812;9.146;2022-07-11T08:07:02;1.73;;;1.63;;
7003;SDS011;3542;48.812;9.146;2022-07-11T08:09:28;2.00;;;1.43;;
7003;SDS011;3542;48.812;9.146;2022-07-11T08:11:53;1.30;;;1.20;;
7003;SDS011;3542;48.812;9.146;2022-07-11T08:14:19;2.60;;;1.00;;
7003;SDS011;3542;48.812;9.146;2022-07-11T08:16:46;0.97;;;0.97;;
7003;SDS011;3542;48.812;9.146;2022-07-11T08:19:12;2.20;;;1.30;;
7003;SDS011;3542;48.812;9.146;2022-07-11T08:21:38;2.10;;;1.20;;
7003;SDS011;3542;48.812;9.146;2022-07-11T08:24:03;1.20;;;1.10;;
7003;SDS011;3542;48.812;9.146;2022-07-11T08:26:29;3.90;;;1.20;;
7003;SDS011;3542;48.812;9.146;2022-07-11T08:28:55;1.00;;;0.70;;
7003;SDS011;3542;48.812;9.146;2022-07-11T08:31:21;1.20;;;0.97;;
7003;SDS011;3542;48.812;9.146;2022-07-11T08:33:47;0.93;;;0.83;;
7003;SDS011;3542;48.812;9.146;2022-07-11T08:36:13;2.60;;;0.90;;
7003;SDS011;3542;48.812;9.146;2022-07-11T08:38:38;2.20;;;0.77;;
7003;SDS011;3542;48.812;9.146;2022-07-11T08:41:08;1.73;;;1.00;;
7003;SDS011;3542;48.812;9.146;2022-07-11T08:43:35;1.00;;;0.90;;
7003;SDS011;3542;48.812;9.146;2022-07-11T08:46:01;1.63;;;0.90;;
7003;SDS011;3542;48.812;9.146;2022-07-11T08:48:26;1.37;;;0.90;;
7003;SDS011;3542;48.812;9.146;2022-07-11T08:50:53;0.93;;;0.60;;
7003;SDS011;3542;48.812;9.146;2022-07-11T08:53:18;1.53;;;0.90;;
7003;SDS011;3542;48.812;9.146;2022-07-11T08:55:44;1.10;;;1.00;;
7003;SDS011;3542;48.812;9.146;2022-07-11T08:58:10;0.97;;;0.87;;
7003;SDS011;3542;48.812;9.146;2022-07-11T09:00:37;0.80;;;0.80;;
7003;SDS011;3542;48.812;9.146;2022-07-11T09:03:03;1.30;;;1.00;;
7003;SDS011;3542;48.812;9.146;2022-07-11T09:05:31;0.80;;;0.80;;
7003;SDS011;3542;48.812;9.146;2022-07-11T09:07:57;2.30;;;1.00;;
7003;SDS011;3542;48.812;9.146;2022-07-11T09:10:22;1.23;;;0.90;;
7003;SDS011;3542;48.812;9.146;2022-07-11T09:13:07;0.80;;;0.80;;
7003;SDS011;3542;48.812;9.146;2022-07-11T09:15:39;1.20;;;0.90;;
7003;SDS011;3542;48.812;9.146;2022-07-11T09:18:31;0.90;;;0.70;;
7003;SDS011;3542;48.812;9.146;2022-07-11T09:21:05;1.03;;;0.90;;
7003;SDS011;3542;48.812;9.146;2022-07-11T09:23:51;2.00;;;0.80;;
7003;SDS011;3542;48.812;9.146;2022-07-11T09:26:38;2.20;;;0.63;;
7003;SDS011;3542;48.812;9.146;2022-07-11T09:31:32;2.80;;;0.87;;
7003;SDS011;3542;48.812;9.146;2022-07-11T09:34:02;1.20;;;0.60;;
7003;SDS011;3542;48.812;9.146;2022-07-11T09:36:37;3.83;;;0.60;;
7003;SDS011;3542;48.812;9.146;2022-07-11T09:39:03;0.60;;;0.60;;
7003;SDS011;3542;48.812;9.146;2022-07-11T09:41:31;0.83;;;0.83;;
7003;SDS011;3542;48.812;9.146;2022-07-11T09:44:17;1.20;;;0.77;;
7003;SDS011;3542;48.812;9.146;2022-07-11T09:46:48;2.80;;;0.90;;
7003;SDS011;3542;48.812;9.146;2022-07-11T09:49:16;0.70;;;0.70;;
7003;SDS011;3542;48.812;9.146;2022-07-11T09:51:53;2.93;;;0.70;;
7003;SDS011;3542;48.812;9.146;2022-07-11T09:54:18;2.73;;;0.60;;
7003;SDS011;3542;48.812;9.146;2022-07-11T09:56:44;3.70;;;0.67;;
7003;SDS011;3542;48.812;9.146;2022-07-11T09:59:16;1.67;;;0.50;;
7003;SDS011;3542;48.812;9.146;2022-07-11T10:01:42;1.30;;;0.50;;
7003;SDS011;3542;48.812;9.146;2022-07-11T10:04:08;0.60;;;0.50;;
7003;SDS011;3542;48.812;9.146;2022-07-11T10:06:35;1.00;;;0.50;;
7003;SDS011;3542;48.812;9.146;2022-07-11T10:09:02;1.07;;;0.70;;
7003;SDS011;3542;48.812;9.146;2022-07-11T10:11:29;0.70;;;0.70;;
7003;SDS011;3542;48.812;9.146;2022-07-11T10:13:56;0.97;;;0.70;;
7003;SDS011;3542;48.812;9.146;2022-07-11T10:16:27;2.60;;;0.60;;
7003;SDS011;3542;48.812;9.146;2022-07-11T10:29:55;0.97;;;0.80;;
7003;SDS011;3542;48.812;9.146;2022-07-11T10:32:21;0.97;;;0.97;;
7003;SDS011;3542;48.812;9.146;2022-07-11T10:34:59;1.83;;;0.77;;
7003;SDS011;3542;48.812;9.146;2022-07-11T10:37:47;0.67;;;0.67;;
7003;SDS011;3542;48.812;9.146;2022-07-11T10:40:13;0.83;;;0.83;;
7003;SDS011;3542;48.812;9.146;2022-07-11T10:42:39;0.70;;;0.70;;
7003;SDS011;3542;48.812;9.146;2022-07-11T10:45:07;0.87;;;0.73;;
7003;SDS011;3542;48.812;9.146;2022-07-11T10:47:41;1.00;;;0.77;;
7003;SDS011;3542;48.812;9.146;2022-07-11T10:52:55;6.47;;;5.80;;
7003;SDS011;3542;48.812;9.146;2022-07-11T10:55:33;3.90;;;1.20;;
7003;SDS011;3542;48.812;9.146;2022-07-11T11:00:35;0.93;;;0.73;;
7003;SDS011;3542;48.812;9.146;2022-07-11T11:03:02;0.80;;;0.80;;
7003;SDS011;3542;48.812;9.146;2022-07-11T11:05:45;0.80;;;0.73;;
7003;SDS011;3542;48.812;9.146;2022-07-11T11:11:01;1.20;;;1.10;;
7003;SDS011;3542;48.812;9.146;2022-07-11T11:13:28;0.70;;;0.70;;
7003;SDS011;3542;48.812;9.146;2022-07-11T11:15:58;1.03;;;0.90;;
7003;SDS011;3542;48.812;9.146;2022-07-11T11:23:25;0.87;;;0.87;;
7003;SDS011;3542;48.812;9.146;2022-07-11T11:25:52;0.70;;;0.70;;
7003;SDS011;3542;48.812;9.146;2022-07-11T11:28:21;1.17;;;0.90;;
7003;SDS011;3542;48.812;9.146;2022-07-11T11:30:54;1.37;;;0.90;;
7003;SDS011;3542;48.812;9.146;2022-07-11T11:33:20;0.70;;;0.70;;
7003;SDS011;3542;48.812;9.146;2022-07-11T11:35:58;0.80;;;0.80;;
7003;SDS011;3542;48.812;9.146;2022-07-11T11:38:33;0.90;;;0.80;;
7003;SDS011;3542;48.812;9.146;2022-07-11T11:41:04;1.53;;;1.10;;
7003;SDS011;3542;48.812;9.146;2022-07-11T11:43:33;0.83;;;0.83;;
7003;SDS011;3542;48.812;9.146;2022-07-11T11:46:00;0.80;;;0.80;;
7003;SDS011;3542;48.812;9.146;2022-07-11T11:51:02;1.27;;;1.10;;
7003;SDS011;3542;48.812;9.146;2022-07-11T11:53:29;0.77;;;0.77;;
7003;SDS011;3542;48.812;9.146;2022-07-11T11:58:41;2.13;;;0.83;;
7003;SDS011;3542;48.812;9.146;2022-07-11T12:01:08;1.90;;;1.50;;
7003;SDS011;3542;48.812;9.146;2022-07-11T12:06:23;5.20;;;1.43;;
7003;SDS011;3542;48.812;9.146;2022-07-11T12:08:51;1.10;;;1.10;;
7003;SDS011;3542;48.812;9.146;2022-07-11T12:11:22;1.03;;;1.03;;
7003;SDS011;3542;48.812;9.146;2022-07-11T12:13:48;1.57;;;1.13;;
7003;SDS011;3542;48.812;9.146;2022-07-11T12:16:23;6.73;;;1.20;;
7003;SDS011;3542;48.812;9.146;2022-07-11T12:19:09;1.30;;;1.20;;
7003;SDS011;3542;48.812;9.146;2022-07-11T12:21:41;1.57;;;1.23;;
7003;SDS011;3542;48.812;9.146;2022-07-11T12:24:09;1.50;;;1.10;;
7003;SDS011;3542;48.812;9.146;2022-07-11T12:26:38;1.47;;;1.00;;
7003;SDS011;3542;48.812;9.146;2022-07-11T12:29:09;1.63;;;1.20;;
7003;SDS011;3542;48.812;9.146;2022-07-11T12:31:45;1.23;;;1.13;;
7003;SDS011;3542;48.812;9.146;2022-07-11T12:34:19;1.60;;;1.50;;
7003;SDS011;3542;48.812;9.146;2022-07-11T12:36:46;1.43;;;1.27;;
7003;SDS011;3542;48.812;9.146;2022-07-11T12:39:22;1.50;;;1.40;;
7003;SDS011;3542;48.812;9.146;2022-07-11T12:41:49;1.20;;;1.10;;
7003;SDS011;3542;48.812;9.146;2022-07-11T12:44:21;1.97;;;1.47;;
7003;SDS011;3542;48.812;9.146;2022-07-11T12:47:09;1.30;;;1.20;;
7003;SDS011;3542;48.812;9.146;2022-07-11T12:49:35;2.93;;;1.10;;
7003;SDS011;3542;48.812;9.146;2022-07-11T12:52:01;2.20;;;1.57;;
7003;SDS011;3542;48.812;9.146;2022-07-11T12:54:30;1.67;;;1.13;;
7003;SDS011;3542;48.812;9.146;2022-07-11T12:56:59;1.40;;;1.30;;
7003;SDS011;3542;48.812;9.146;2022-07-11T12:59:27;1.00;;;1.00;;
7003;SDS011;3542;48.812;9.146;2022-07-11T13:10:08;4.30;;;1.73;;
7003;SDS011;3542;48.812;9.146;2022-07-11T13:12:38;2.20;;;1.50;;
7003;SDS011;3542;48.812;9.146;2022-07-11T13:15:07;1.50;;;1.40;;
7003;SDS011;3542;48.812;9.146;2022-07-11T13:20:10;1.77;;;1.30;;
7003;SDS011;3542;48.812;9.146;2022-07-11T13:22:40;1.40;;;1.40;;
7003;SDS011;3542;48.812;9.146;2022-07-11T13:25:07;2.40;;;1.70;;
7003;SDS011;3542;48.812;9.146;2022-07-11T13:27:33;2.83;;;1.53;;
7003;SDS011;3542;48.812;9.146;2022-07-11T13:29:59;1.40;;;1.13;;
7003;SDS011;3542;48.812;9.146;2022-07-11T13:32:25;1.63;;;1.53;;
7003;SDS011;3542;48.812;9.146;2022-07-11T13:34:51;1.40;;;1.30;;
7003;SDS011;3542;48.812;9.146;2022-07-11T13:37:16;2.13;;;1.50;;
7003;SDS011;3542;48.812;9.146;2022-07-11T13:39:42;3.17;;;1.57;;
7003;SDS011;3542;48.812;9.146;2022-07-11T13:42:08;3.50;;;2.07;;
7003;SDS011;3542;48.812;9.146;2022-07-11T13:44:33;1.47;;;1.37;;
7003;SDS011;3542;48.812;9.146;2022-07-11T13:47:00;2.73;;;2.00;;
7003;SDS011;3542;48.812;9.146;2022-07-11T13:49:25;1.97;;;1.87;;
7003;SDS011;3542;48.812;9.146;2022-07-11T13:51:51;2.93;;;1.50;;
7003;SDS011;3542;48.812;9.146;2022-07-11T13:54:17;1.93;;;1.73;;
7003;SDS011;3542;48.812;9.146;2022-07-11T13:56:43;2.40;;;1.30;;
7003;SDS011;3542;48.812;9.146;2022-07-11T13:59:08;2.20;;;1.43;;
7003;SDS011;3542;48.812;9.146;2022-07-11T14:01:34;2.30;;;1.87;;
7003;SDS011;3542;48.812;9.146;2022-07-11T14:03:59;2.67;;;1.53;;
7003;SDS011;3542;48.812;9.146;2022-07-11T14:06:25;1.73;;;1.47;;
7003;SDS011;3542;48.812;9.146;2022-07-11T14:08:50;1.70;;;1.60;;
7003;SDS011;3542;48.812;9.146;2022-07-11T14:11:16;2.40;;;1.70;;
7003;SDS011;3542;48.812;9.146;2022-07-11T14:13:41;2.87;;;1.77;;
7003;SDS011;3542;48.812;9.146;2022-07-11T14:16:07;2.70;;;1.70;;
7003;SDS011;3542;48.812;9.146;2022-07-11T14:18:33;2.33;;;1.43;;
7003;SDS011;3542;48.812;9.146;2022-07-11T14:20:58;2.43;;;2.10;;
7003;SDS011;3542;48.812;9.146;2022-07-11T14:23:24;3.50;;;2.50;;
7003;SDS011;3542;48.812;9.146;2022-07-11T14:25:50;1.73;;;1.63;;
7003;SDS011;3542;48.812;9.146;2022-07-11T14:28:16;3.50;;;2.07;;
7003;SDS011;3542;48.812;9.146;2022-07-11T14:30:43;3.80;;;2.17;;
7003;SDS011;3542;48.812;9.146;2022-07-11T14:33:09;2.83;;;1.83;;
7003;SDS011;3542;48.812;9.146;2022-07-11T14:35:34;1.93;;;1.70;;
7003;SDS011;3542;48.812;9.146;2022-07-11T14:38:00;4.93;;;1.80;;
7003;SDS011;3542;48.812;9.146;2022-07-11T14:40:26;2.53;;;2.17;;
7003;SDS011;3542;48.812;9.146;2022-07-11T14:42:52;3.73;;;1.80;;
7003;SDS011;3542;48.812;9.146;2022-07-11T14:45:17;2.50;;;2.30;;
7003;SDS011;3542;48.812;9.146;2022-07-11T14:47:44;2.30;;;1.90;;
7003;SDS011;3542;48.812;9.146;2022-07-11T14:50:09;3.00;;;2.47;;
7003;SDS011;3542;48.812;9.146;2022-07-11T14:52:35;9.53;;;2.90;;
7003;SDS011;3542;48.812;9.146;2022-07-11T14:55:01;3.90;;;2.50;;
7003;SDS011;3542;48.812;9.146;2022-07-11T14:57:27;5.17;;;2.20;;
7003;SDS011;3542;48.812;9.146;2022-07-11T14:59:53;2.80;;;2.20;;
7003;SDS011;3542;48.812;9.146;2022-07-11T15:02:18;3.20;;;2.37;;
7003;SDS011;3542;48.812;9.146;2022-07-11T15:05:04;1.80;;;1.70;;
7003;SDS011;3542;48.812;9.146;2022-07-11T15:07:30;2.07;;;1.97;;
7003;SDS011;3542;48.812;9.146;2022-07-11T15:10:14;3.00;;;2.50;;
7003;SDS011;3542;48.812;9.146;2022-07-11T15:12:58;6.87;;;1.93;;
7003;SDS011;3542;48.812;9.146;2022-07-11T15:15:23;2.63;;;2.10;;
7003;SDS011;3542;48.812;9.146;2022-07-11T15:17:49;2.77;;;2.10;;
7003;SDS011;3542;48.812;9.146;2022-07-11T15:20:15;5.30;;;2.07;;
7003;SDS011;3542;48.812;9.146;2022-07-11T15:22:41;1.87;;;1.77;;
7003;SDS011;3542;48.812;9.146;2022-07-11T15:25:06;2.70;;;1.90;;
7003;SDS011;3542;48.812;9.146;2022-07-11T15:27:32;3.13;;;1.80;;
7003;SDS011;3542;48.812;9.146;2022-07-11T15:29:58;2.10;;;2.00;;
7003;SDS011;3542;48.812;9.146;2022-07-11T15:32:24;2.03;;;1.93;;
7003;SDS011;3542;48.812;9.146;2022-07-11T15:34:52;4.63;;;2.20;;
7003;SDS011;3542;48.812;9.146;2022-07-11T15:37:17;2.37;;;2.17;;
7003;SDS011;3542;48.812;9.146;2022-07-11T15:39:43;3.70;;;2.40;;
7003;SDS011;3542;48.812;9.146;2022-07-11T15:42:09;4.83;;;2.00;;
7003;SDS011;3542;48.812;9.146;2022-07-11T15:44:35;2.33;;;2.23;;
7003;SDS011;3542;48.812;9.146;2022-07-11T15:47:00;6.20;;;1.77;;
7003;SDS011;3542;48.812;9.146;2022-07-11T15:49:26;2.37;;;2.17;;
7003;SDS011;3542;48.812;9.146;2022-07-11T15:51:51;2.60;;;2.40;;
7003;SDS011;3542;48.812;9.146;2022-07-11T15:54:17;2.17;;;2.07;;
7003;SDS011;3542;48.812;9.146;2022-07-11T15:56:43;2.10;;;2.00;;
7003;SDS011;3542;48.812;9.146;2022-07-11T15:59:09;1.90;;;1.80;;
7003;SDS011;3542;48.812;9.146;2022-07-11T16:01:35;1.83;;;1.73;;
7003;SDS011;3542;48.812;9.146;2022-07-11T16:04:01;2.17;;;2.00;;
7003;SDS011;3542;48.812;9.146;2022-07-11T16:06:28;2.93;;;1.97;;
7003;SDS011;3542;48.812;9.146;2022-07-11T16:08:54;3.43;;;2.03;;
7003;SDS011;3542;48.812;9.146;2022-07-11T16:11:21;3.13;;;2.60;;
7003;SDS011;3542;48.812;9.146;2022-07-11T16:13:46;2.90;;;2.30;;
7003;SDS011;3542;48.812;9.146;2022-07-11T16:16:12;2.30;;;2.20;;
7003;SDS011;3542;48.812;9.146;2022-07-11T16:18:37;5.23;;;2.00;;
7003;SDS011;3542;48.812;9.146;2022-07-11T16:21:03;2.77;;;2.13;;
7003;SDS011;3542;48.812;9.146;2022-07-11T16:23:29;2.27;;;2.13;;
7003;SDS011;3542;48.812;9.146;2022-07-11T16:25:55;8.83;;;2.50;;
7003;SDS011;3542;48.812;9.146;2022-07-11T16:28:20;4.97;;;2.63;;
7003;SDS011;3542;48.812;9.146;2022-07-11T16:30:46;2.00;;;1.90;;
7003;SDS011;3542;48.812;9.146;2022-07-11T16:33:12;5.10;;;2.30;;
7003;SDS011;3542;48.812;9.146;2022-07-11T16:35:37;2.77;;;2.57;;
7003;SDS011;3542;48.812;9.146;2022-07-11T16:38:03;3.70;;;2.07;;
7003;SDS011;3542;48.812;9.146;2022-07-11T16:40:28;3.70;;;2.20;;
7003;SDS011;3542;48.812;9.146;2022-07-11T16:43:13;2.90;;;2.20;;
7003;SDS011;3542;48.812;9.146;2022-07-11T16:45:49;2.50;;;2.40;;
7003;SDS011;3542;48.812;9.146;2022-07-11T16:48:18;4.03;;;2.20;;
7003;SDS011;3542;48.812;9.146;2022-07-11T16:50:47;6.77;;;2.53;;
7003;SDS011;3542;48.812;9.146;2022-07-11T16:53:13;2.03;;;1.67;;
7003;SDS011;3542;48.812;9.146;2022-07-11T16:55:40;2.13;;;1.90;;
7003;SDS011;3542;48.812;9.146;2022-07-11T16:58:06;2.17;;;1.97;;
7003;SDS011;3542;48.812;9.146;2022-07-11T17:00:31;3.00;;;1.97;;
7003;SDS011;3542;48.812;9.146;2022-07-11T17:02:58;2.57;;;2.00;;
7003;SDS011;3542;48.812;9.146;2022-07-11T17:05:23;3.37;;;1.90;;
7003;SDS011;3542;48.812;9.146;2022-07-11T17:07:49;2.63;;;2.37;;
7003;SDS011;3542;48.812;9.146;2022-07-11T17:10:33;8.30;;;2.40;;
7003;SDS011;3542;48.812;9.146;2022-07-11T17:12:59;2.40;;;1.93;;
7003;SDS011;3542;48.812;9.146;2022-07-11T17:15:25;2.60;;;2.40;;
7003;SDS011;3542;48.812;9.146;2022-07-11T17:17:50;1.70;;;1.60;;
7003;SDS011;3542;48.812;9.146;2022-07-11T17:20:16;2.17;;;2.07;;
7003;SDS011;3542;48.812;9.146;2022-07-11T17:22:41;3.43;;;1.83;;
7003;SDS011;3542;48.812;9.146;2022-07-11T17:25:07;2.20;;;1.80;;
7003;SDS011;3542;48.812;9.146;2022-07-11T17:27:33;2.30;;;2.20;;
7003;SDS011;3542;48.812;9.146;2022-07-11T17:29:59;2.50;;;2.00;;
7003;SDS011;3542;48.812;9.146;2022-07-11T17:32:24;2.47;;;2.37;;